Time;durP1;ratioP1;P1;durP2;ratioP2;P2;SDS_P1;SDS_P2;PMS_P1;PMS_P2;Temp;Humidity;BMP_temperature;BMP_pressure;BME280_temperature;BME280_humidity;BME280_pressure;Samples;Min_cycle;Max_cycle;Signal;HPM_P1;HPM_P2
2023/03/20 00:01:17;;;;;;;1999.90;999.90;;;5.90;99.90;;;;;;4996315;28;20029;-78
2023/03/20 00:03:43;;;;;;;1999.90;999.90;;;5.90;99.90;;;;;;4995678;28;20157;-73
2023/03/20 00:06:21;;;;;;;1999.90;999.90;;;6.00;99.90;;;;;;4995839;28;20113;-78
2023/03/20 00:08:48;;;;;;;1999.90;999.90;;;6.10;99.90;;;;;;5016063;28;20402;-73
2023/03/20 00:11:29;;;;;;;1999.90;999.90;;;6.10;99.90;;;;;;5035561;28;20033;-73
2023/03/20 00:14:01;;;;;;;1999.90;999.90;;;6.10;99.90;;;;;;5034999;28;20370;-78
2023/03/20 00:16:33;;;;;;;1999.90;999.90;;;6.00;99.90;;;;;;5035210;28;20108;-78
2023/03/20 00:18:59;;;;;;;1999.90;999.90;;;6.00;99.90;;;;;;5035235;28;20055;-78
2023/03/20 00:21:26;;;;;;;1999.90;999.90;;;5.90;99.90;;;;;;5031858;28;20052;-73
2023/03/20 00:23:53;;;;;;;1999.90;999.90;;;6.00;99.90;;;;;;5015363;28;20037;-73
2023/03/20 00:26:23;;;;;;;1999.90;999.90;;;6.00;99.90;;;;;;5014987;28;20034;-73
2023/03/20 00:28:49;;;;;;;1999.90;999.90;;;6.10;99.90;;;;;;5014501;28;20369;-79
2023/03/20 00:31:25;;;;;;;1999.90;999.90;;;6.10;99.90;;;;;;5014753;28;20033;-73
2023/03/20 00:33:56;;;;;;;1999.90;999.90;;;6.20;99.90;;;;;;5014619;28;20048;-74
2023/03/20 00:36:22;;;;;;;1999.90;999.90;;;6.20;99.90;;;;;;5014950;28;20092;-73
2023/03/20 00:38:48;;;;;;;1999.90;999.90;;;6.20;99.90;;;;;;5014813;28;20036;-78
2023/03/20 00:41:27;;;;;;;1999.90;999.90;;;6.30;99.90;;;;;;5024145;28;20408;-73
2023/03/20 00:44:00;;;;;;;1999.90;999.90;;;6.40;99.90;;;;;;5034771;28;20028;-78
2023/03/20 00:46:26;;;;;;;1999.90;999.90;;;6.50;99.90;;;;;;5024666;28;20034;-73
2023/03/20 00:48:52;;;;;;;1999.90;999.90;;;6.50;99.90;;;;;;5014481;28;20054;-74
2023/03/20 00:51:18;;;;;;;1999.90;999.90;;;6.60;99.90;;;;;;5014807;28;20029;-73
2023/03/20 00:53:44;;;;;;;1999.90;999.90;;;6.70;99.90;;;;;;5014555;28;20026;-78
2023/03/20 00:56:32;;;;;;;1999.90;999.90;;;6.80;99.90;;;;;;5012865;28;20029;-73
2023/03/20 00:59:00;;;;;;;1999.90;999.90;;;6.90;99.90;;;;;;4995080;28;20389;-73
2023/03/20 01:01:26;;;;;;;1999.90;999.90;;;7.00;99.90;;;;;;4994988;28;20545;-73
2023/03/20 01:03:51;;;;;;;1999.90;999.90;;;7.00;99.90;;;;;;4994850;28;20117;-73
2023/03/20 01:06:17;;;;;;;1999.90;999.90;;;7.00;99.90;;;;;;4994687;28;20121;-73
2023/03/20 01:08:44;;;;;;;1999.90;999.90;;;6.90;99.90;;;;;;5014045;28;20109;-73
2023/03/20 01:11:12;;;;;;;1999.90;999.90;;;6.90;99.90;;;;;;5034747;28;20045;-79
2023/03/20 01:13:39;;;;;;;1999.90;999.90;;;6.90;99.90;;;;;;5034027;28;20048;-73
2023/03/20 01:16:06;;;;;;;1999.90;999.90;;;6.90;99.90;;;;;;5034165;28;20057;-73
2023/03/20 01:18:32;;;;;;;1999.90;999.90;;;6.90;99.90;;;;;;5033233;28;20040;-73
2023/03/20 01:20:58;;;;;;;1999.90;999.90;;;6.90;99.90;;;;;;5034183;28;20033;-78
2023/03/20 01:23:25;;;;;;;1999.90;999.90;;;6.90;99.90;;;;;;5014455;28;20702;-79
2023/03/20 01:25:51;;;;;;;1999.90;999.90;;;6.90;99.90;;;;;;5013902;28;20591;-73
2023/03/20 01:28:22;;;;;;;1999.90;999.90;;;6.90;99.90;;;;;;5014173;28;20108;-73
2023/03/20 01:30:49;;;;;;;1999.90;999.90;;;6.90;99.90;;;;;;5013709;28;20160;-73
2023/03/20 01:33:17;;;;;;;1999.90;999.90;;;6.90;99.90;;;;;;5013729;28;20104;-73
2023/03/20 01:35:44;;;;;;;1999.90;999.90;;;6.80;99.90;;;;;;5014094;28;20025;-73
2023/03/20 01:38:19;;;;;;;1999.90;999.90;;;6.90;99.90;;;;;;5013766;28;20113;-78
2023/03/20 01:40:54;;;;;;;1999.90;999.90;;;6.90;99.90;;;;;;5019670;28;20027;-73
2023/03/20 01:43:22;;;;;;;1999.90;999.90;;;7.00;99.90;;;;;;5033560;28;20033;-73
2023/03/20 01:46:16;;;;;;;1999.90;999.90;;;7.30;99.90;;;;;;5028521;28;20033;-78
2023/03/20 01:48:56;;;;;;;1999.90;999.90;;;7.40;99.90;;;;;;5013620;28;20208;-73
2023/03/20 01:51:31;;;;;;;1999.90;999.90;;;7.40;99.90;;;;;;5013846;28;20021;-73
2023/03/20 01:54:34;;;;;;;1999.90;999.90;;;7.40;99.90;;;;;;5013565;28;20049;-73
2023/03/20 01:57:09;;;;;;;1999.90;999.90;;;7.30;99.90;;;;;;5011163;28;20034;-73
2023/03/20 01:59:40;;;;;;;1999.90;999.90;;;7.30;99.90;;;;;;5011282;28;20493;-79
2023/03/20 02:02:08;;;;;;;1999.90;999.90;;;7.30;99.90;;;;;;5011364;28;20471;-73
2023/03/20 02:04:37;;;;;;;1999.90;999.90;;;7.30;99.90;;;;;;5011343;28;20042;-78
2023/03/20 02:07:06;;;;;;;1999.90;999.90;;;7.20;99.90;;;;;;5010874;28;20029;-79
2023/03/20 02:09:31;;;;;;;1999.90;999.90;;;7.20;99.90;;;;;;5027486;28;20116;-73
2023/03/20 02:11:58;;;;;;;1999.90;999.90;;;7.20;99.90;;;;;;5031155;28;20160;-73
2023/03/20 02:14:25;;;;;;;1999.90;999.90;;;7.20;99.90;;;;;;5031049;28;20560;-73
2023/03/20 02:16:51;;;;;;;1999.90;999.90;;;7.10;99.90;;;;;;5030863;28;20030;-78
2023/03/20 02:19:30;;;;;;;1999.90;999.90;;;7.10;99.90;;;;;;5030939;28;20111;-73
2023/03/20 02:22:28;;;;;;;1999.90;999.90;;;7.10;99.90;;;;;;5031062;28;20850;-79
2023/03/20 02:25:36;;;;;;;1999.90;999.90;;;7.00;99.90;;;;;;5030943;28;20099;-78
2023/03/20 02:28:19;;;;;;;1999.90;999.90;;;6.90;99.90;;;;;;5003478;28;20053;-73
2023/03/20 02:31:34;;;;;;;1999.90;999.90;;;6.80;99.90;;;;;;5023315;28;20061;-73
2023/03/20 02:34:38;;;;;;;1999.90;999.90;;;6.70;99.90;;;;;;5012777;28;20065;-74
2023/03/20 02:37:36;;;;;;;1999.90;999.90;;;6.70;99.90;;;;;;5013124;28;20037;-74
2023/03/20 02:40:10;;;;;;;1999.90;999.90;;;6.70;99.90;;;;;;5013171;28;20094;-74
2023/03/20 02:43:11;;;;;;;1999.90;999.90;;;6.70;99.90;;;;;;5032938;28;20022;-74
2023/03/20 02:46:08;;;;;;;1999.90;999.90;;;6.70;99.90;;;;;;5028466;28;20049;-79
2023/03/20 02:48:51;;;;;;;1999.90;999.90;;;6.60;99.90;;;;;;5012802;28;20056;-74
2023/03/20 02:51:27;;;;;;;1999.90;999.90;;;6.60;99.90;;;;;;5013070;28;20033;-73
2023/03/20 02:53:57;;;;;;;1999.90;999.90;;;6.50;99.90;;;;;;5013144;28;20057;-74
2023/03/20 02:56:35;;;;;;;1999.90;999.90;;;6.50;99.90;;;;;;5009199;28;20072;-79
2023/03/20 02:59:10;;;;;;;1999.90;999.90;;;6.50;99.90;;;;;;4993190;28;20050;-74
2023/03/20 03:01:41;;;;;;;1999.90;999.90;;;6.50;99.90;;;;;;4993133;28;20050;-74
2023/03/20 03:04:11;;;;;;;1999.90;999.90;;;6.50;99.90;;;;;;4993759;28;20034;-74
2023/03/20 03:06:41;;;;;;;1999.90;999.90;;;6.40;99.90;;;;;;4996423;28;20446;-74
2023/03/20 03:09:17;;;;;;;1999.90;999.90;;;6.50;99.90;;;;;;5022653;28;20029;-79
2023/03/20 03:11:48;;;;;;;1999.90;999.90;;;6.50;99.90;;;;;;5036571;28;20026;-73
2023/03/20 03:14:22;;;;;;;1999.90;999.90;;;6.50;99.90;;;;;;5036543;28;20033;-74
2023/03/20 03:16:50;;;;;;;1999.90;999.90;;;6.50;99.90;;;;;;5036133;28;20036;-74
2023/03/20 03:19:21;;;;;;;1999.90;999.90;;;6.60;99.90;;;;;;5036674;28;20033;-79
2023/03/20 03:21:48;;;;;;;1999.90;999.90;;;6.60;99.90;;;;;;5029919;28;20050;-73
2023/03/20 03:24:32;;;;;;;1999.90;999.90;;;6.60;99.90;;;;;;5016364;28;20034;-74
2023/03/20 03:27:02;;;;;;;1999.90;999.90;;;6.60;99.90;;;;;;5016156;28;20042;-74
2023/03/20 03:29:32;;;;;;;1999.90;999.90;;;6.60;99.90;;;;;;5016621;28;20113;-80
2023/03/20 03:32:01;;;;;;;1999.90;999.90;;;6.60;99.90;;;;;;5016140;28;20456;-74
2023/03/20 03:34:28;;;;;;;1999.90;999.90;;;6.70;99.90;;;;;;5016064;28;20100;-74
2023/03/20 03:37:01;;;;;;;1999.90;999.90;;;6.70;99.90;;;;;;5015557;28;20065;-73
2023/03/20 03:39:35;;;;;;;1999.90;999.90;;;6.70;99.90;;;;;;5016080;28;20080;-74
2023/03/20 03:42:20;;;;;;;1999.90;999.90;;;6.70;99.90;;;;;;5032277;28;20492;-74
2023/03/20 03:45:06;;;;;;;1999.90;999.90;;;6.80;99.90;;;;;;5035991;28;20088;-74
2023/03/20 03:47:36;;;;;;;1999.90;999.90;;;6.80;99.90;;;;;;5015406;28;20124;-79
2023/03/20 03:50:14;;;;;;;1999.90;999.90;;;6.80;99.90;;;;;;5015837;28;20038;-79
2023/03/20 03:52:41;;;;;;;1999.90;999.90;;;6.80;99.90;;;;;;5015837;28;20033;-79
2023/03/20 03:55:15;;;;;;;1999.90;999.90;;;6.80;99.90;;;;;;5015807;28;20026;-74
2023/03/20 03:58:10;;;;;;;1999.90;999.90;;;6.80;99.90;;;;;;5001408;28;20396;-73
2023/03/20 04:00:39;;;;;;;1999.90;999.90;;;6.80;99.90;;;;;;4996124;28;20026;-74
2023/03/20 04:03:07;;;;;;;1999.90;999.90;;;6.80;99.90;;;;;;4996054;28;20037;-79
2023/03/20 04:05:36;;;;;;;1999.90;999.90;;;6.80;99.90;;;;;;4995881;28;20157;-79
2023/03/20 04:08:04;;;;;;;1999.90;999.90;;;6.80;99.90;;;;;;5003947;28;20623;-74
2023/03/20 04:10:30;;;;;;;1999.90;999.90;;;6.80;99.90;;;;;;5035338;28;20044;-74
2023/03/20 04:12:56;;;;;;;1999.90;999.90;;;6.80;99.90;;;;;;5035067;28;20036;-74
2023/03/20 04:15:21;;;;;;;1999.90;999.90;;;6.80;99.90;;;;;;5035333;28;20021;-74
2023/03/20 04:17:47;;;;;;;1999.90;999.90;;;6.80;99.90;;;;;;5033250;28;20033;-79
2023/03/20 04:20:13;;;;;;;1999.90;999.90;;;6.80;99.90;;;;;;5035166;28;20029;-73
2023/03/20 04:22:39;;;;;;;1999.90;999.90;;;6.80;99.90;;;;;;5021443;28;20507;-74
2023/03/20 04:25:07;;;;;;;1999.90;999.90;;;6.80;99.90;;;;;;5015178;28;20025;-73
2023/03/20 04:27:33;;;;;;;1999.90;999.90;;;6.80;99.90;;;;;;5015209;28;20385;-74
2023/03/20 04:29:59;;;;;;;1999.90;999.90;;;6.70;99.90;;;;;;5014780;28;20505;-74
2023/03/20 04:32:25;;;;;;;1999.90;999.90;;;6.70;99.90;;;;;;5015265;28;20040;-79
2023/03/20 04:34:51;;;;;;;1999.90;999.90;;;6.70;99.90;;;;;;5014853;28;20496;-74
2023/03/20 04:37:16;;;;;;;1999.90;999.90;;;6.70;99.90;;;;;;5014333;28;20034;-74
2023/03/20 04:39:42;;;;;;;1999.90;999.90;;;6.70;99.90;;;;;;5014458;28;20511;-74
2023/03/20 04:42:08;;;;;;;1999.90;999.90;;;6.70;99.90;;;;;;5031921;28;20079;-74
2023/03/20 04:44:34;;;;;;;1999.90;999.90;;;6.70;99.90;;;;;;5034313;28;20029;-73
2023/03/20 04:47:00;;;;;;;1999.90;999.90;;;6.70;99.90;;;;;;5020002;28;20088;-73
2023/03/20 04:49:27;;;;;;;1999.90;999.90;;;6.70;99.90;;;;;;5014741;28;20417;-73
2023/03/20 04:51:53;;;;;;;1999.90;999.90;;;6.60;99.90;;;;;;5014837;28;20050;-74
2023/03/20 04:54:20;;;;;;;1999.90;999.90;;;6.60;99.90;;;;;;5014752;28;20025;-74
2023/03/20 04:56:46;;;;;;;1999.90;999.90;;;6.60;99.90;;;;;;5007874;28;20027;-74
2023/03/20 04:59:11;;;;;;;1999.90;999.90;;;6.60;99.90;;;;;;4995241;28;20030;-79
2023/03/20 05:01:37;;;;;;;1999.90;999.90;;;6.50;99.90;;;;;;4994587;28;20113;-74
2023/03/20 05:04:02;;;;;;;1999.90;999.90;;;6.50;99.90;;;;;;4995020;28;20036;-73
2023/03/20 05:06:30;;;;;;;1999.90;999.90;;;6.50;99.90;;;;;;4994872;28;20425;-74
2023/03/20 05:08:57;;;;;;;1999.90;999.90;;;6.50;99.90;;;;;;5017696;28;20022;-74
2023/03/20 05:11:24;;;;;;;1999.90;999.90;;;6.50;99.90;;;;;;5034521;28;20026;-74
2023/03/20 05:13:50;;;;;;;1999.90;999.90;;;6.60;99.90;;;;;;5033936;28;20021;-74
2023/03/20 05:16:16;;;;;;;1999.90;999.90;;;6.60;99.90;;;;;;5033756;28;20033;-74
2023/03/20 05:18:42;;;;;;;1999.90;999.90;;;6.60;99.90;;;;;;5033732;28;20029;-79
2023/03/20 05:21:08;;;;;;;1999.90;999.90;;;6.60;99.90;;;;;;5033230;28;20029;-79
2023/03/20 05:23:34;;;;;;;1999.90;999.90;;;6.70;99.90;;;;;;5014437;28;20148;-74
2023/03/20 05:26:00;;;;;;;1999.90;999.90;;;6.70;99.90;;;;;;5014097;28;20101;-74
2023/03/20 05:28:26;;;;;;;1999.90;999.90;;;6.60;99.90;;;;;;5013804;28;20021;-74
2023/03/20 05:30:51;;;;;;;1999.90;999.90;;;6.70;99.90;;;;;;5013627;28;20026;-74
2023/03/20 05:33:17;;;;;;;1999.90;999.90;;;6.70;99.90;;;;;;5014375;28;20025;-79
2023/03/20 05:35:43;;;;;;;1999.90;999.90;;;6.80;99.90;;;;;;5013615;28;20750;-79
2023/03/20 05:38:08;;;;;;;1999.90;999.90;;;6.80;99.90;;;;;;5013591;28;20033;-74
2023/03/20 05:40:34;;;;;;;1999.90;999.90;;;6.80;99.90;;;;;;5018444;28;20030;-79
2023/03/20 05:42:59;;;;;;;1999.90;999.90;;;6.80;99.90;;;;;;5033541;28;20040;-73
2023/03/20 05:45:25;;;;;;;1999.90;999.90;;;6.80;99.90;;;;;;5032166;28;20388;-74
2023/03/20 05:47:51;;;;;;;1999.90;999.90;;;6.80;99.90;;;;;;5013412;28;20052;-79
2023/03/20 05:50:19;;;;;;;1999.90;999.90;;;6.90;99.90;;;;;;5013649;28;20030;-79
2023/03/20 05:52:48;;;;;;;1999.90;999.90;;;6.90;99.90;;;;;;5013793;28;20106;-74
2023/03/20 05:55:14;;;;;;;1999.90;999.90;;;6.80;99.90;;;;;;5018503;28;20064;-74
2023/03/20 05:57:40;;;;;;;1999.90;999.90;;;6.80;99.90;;;;;;5004228;28;20030;-74
2023/03/20 06:00:09;;;;;;;1999.90;999.90;;;6.80;99.90;;;;;;5013548;28;20095;-79
2023/03/20 06:02:35;;;;;;;1999.90;999.90;;;6.80;99.90;;;;;;5012502;28;20029;-74
2023/03/20 06:05:01;;;;;;;1999.90;999.90;;;6.70;99.90;;;;;;5013183;28;20029;-79
2023/03/20 06:07:27;;;;;;;1999.90;999.90;;;6.70;99.90;;;;;;5013705;28;20129;-73
2023/03/20 06:09:53;;;;;;;1999.90;999.90;;;6.70;99.90;;;;;;5032199;28;20026;-73
2023/03/20 06:12:19;;;;;;;1999.90;999.90;;;6.80;99.90;;;;;;5017786;28;20523;-74
2023/03/20 06:14:45;;;;;;;1999.90;999.90;;;6.70;99.90;;;;;;5013224;28;20048;-74
2023/03/20 06:17:10;;;;;;;1999.90;999.90;;;6.70;99.90;;;;;;5013120;28;20477;-74
2023/03/20 06:19:37;;;;;;;1999.90;999.90;;;6.80;99.90;;;;;;5013327;28;20018;-74
2023/03/20 06:22:03;;;;;;;1999.90;999.90;;;6.80;99.90;;;;;;5013380;28;20038;-74
2023/03/20 06:24:29;;;;;;;1999.90;999.90;;;6.80;99.90;;;;;;5016927;28;20026;-79
2023/03/20 06:26:55;;;;;;;1999.90;999.90;;;6.80;99.90;;;;;;5010658;28;20136;-74
2023/03/20 06:29:21;;;;;;;1999.90;999.90;;;6.80;99.90;;;;;;5004683;28;20070;-79
2023/03/20 06:31:47;;;;;;;1999.90;999.90;;;6.80;99.90;;;;;;5010319;28;20045;-79
2023/03/20 06:34:13;;;;;;;1999.90;999.90;;;6.90;99.90;;;;;;5009905;28;20041;-77
2023/03/20 06:36:39;;;;;;;1999.90;999.90;;;6.90;99.90;;;;;;5004997;28;20033;-79
2023/03/20 06:39:05;;;;;;;1999.90;999.90;;;7.00;99.90;;;;;;5002458;28;20533;-74
2023/03/20 06:41:30;;;;;;;1999.90;999.90;;;7.00;99.90;;;;;;5022498;28;20101;-74
2023/03/20 06:43:56;;;;;;;1999.90;999.90;;;7.00;99.90;;;;;;5004591;28;20022;-79
2023/03/20 06:46:22;;;;;;;1999.90;999.90;;;7.00;99.90;;;;;;5009883;28;20531;-79
2023/03/20 06:48:47;;;;;;;1999.90;999.90;;;7.00;99.90;;;;;;5016072;28;20516;-74
2023/03/20 06:51:14;;;;;;;1999.90;999.90;;;7.10;99.90;;;;;;5006701;28;20034;-74
2023/03/20 06:53:42;;;;;;;1999.90;999.90;;;7.10;99.90;;;;;;4996983;28;20080;-73
2023/03/20 06:56:11;;;;;;;1999.90;999.90;;;7.10;99.90;;;;;;5011687;28;20402;-73
2023/03/20 06:58:37;;;;;;;1999.90;999.90;;;7.20;99.90;;;;;;5004878;28;20025;-74
2023/03/20 07:01:09;;;;;;;1999.90;999.90;;;7.20;99.90;;;;;;5014666;28;20109;-79
2023/03/20 07:03:34;;;;;;;1999.90;999.90;;;7.20;99.90;;;;;;5017774;28;20033;-81
2023/03/20 07:06:00;;;;;;;1999.90;999.90;;;7.30;99.90;;;;;;5013814;28;20412;-76
2023/03/20 07:08:26;;;;;;;1999.90;999.90;;;7.30;99.90;;;;;;5015053;28;20105;-74
2023/03/20 07:10:52;;;;;;;1999.90;999.90;;;7.30;99.90;;;;;;5005448;28;20111;-76
2023/03/20 07:13:17;;;;;;;1999.90;999.90;;;7.30;99.90;;;;;;5009727;28;20030;-76
2023/03/20 07:15:43;;;;;;;1999.90;999.90;;;7.30;99.90;;;;;;5018955;28;20064;-76
2023/03/20 07:18:09;;;;;;;1999.90;999.90;;;7.30;99.90;;;;;;5017702;28;20041;-74
2023/03/20 07:20:35;;;;;;;1999.90;999.90;;;7.30;99.90;;;;;;5033940;28;20127;-73
2023/03/20 07:23:00;;;;;;;1999.90;999.90;;;7.40;99.90;;;;;;5031841;28;20029;-76
2023/03/20 07:25:26;;;;;;;1999.90;999.90;;;7.40;99.90;;;;;;5018269;28;20712;-77
2023/03/20 07:27:52;;;;;;;1999.90;999.90;;;7.40;99.90;;;;;;5015878;28;20473;-78
2023/03/20 07:30:18;;;;;;;1999.90;999.90;;;7.50;99.90;;;;;;5016595;28;20563;-78
2023/03/20 07:32:44;;;;;;;1999.90;999.90;;;7.60;99.90;;;;;;5016383;28;20026;-73
2023/03/20 07:35:10;;;;;;;1999.90;999.90;;;7.70;99.90;;;;;;5004314;28;20058;-73
2023/03/20 07:37:35;;;;;;;1999.90;999.90;;;7.90;99.90;;;;;;5004106;28;20486;-78
2023/03/20 07:40:01;;;;;;;1999.90;999.90;;;8.10;99.90;;;;;;5013710;28;20037;-72
2023/03/20 07:42:27;;;;;;;1999.90;999.90;;;8.30;99.90;;;;;;5008129;28;20030;-73
2023/03/20 07:44:52;;;;;;;1999.90;999.90;;;8.50;99.90;;;;;;5000139;28;20055;-73
2023/03/20 07:47:18;;;;;;;1999.90;999.90;;;9.30;99.90;;;;;;5024152;28;20061;-73
2023/03/20 07:49:45;;;;;;;1999.90;999.90;;;10.50;99.90;;;;;;5023523;28;20030;-78
2023/03/20 07:52:11;;;;;;;1999.90;999.90;;;10.20;99.90;;;;;;5024201;28;20456;-73
2023/03/20 07:54:36;;;;;;;1999.90;999.90;;;9.90;99.90;;;;;;5013442;28;20173;-78
2023/03/20 07:57:04;;;;;;;1999.90;999.90;;;9.80;99.90;;;;;;5013367;28;20165;-73
2023/03/20 07:59:30;;;;;;;1999.90;999.90;;;9.60;99.90;;;;;;5018257;28;20029;-73
2023/03/20 08:01:55;;;;;;;1999.90;999.90;;;9.70;99.90;;;;;;5016971;28;20029;-78
2023/03/20 08:04:21;;;;;;;1999.90;999.90;;;9.90;99.90;;;;;;5050574;28;20109;-78
2023/03/20 08:06:47;;;;;;;1999.90;999.90;;;10.10;99.90;;;;;;5021373;28;20060;-78
2023/03/20 08:09:13;;;;;;;1999.90;999.90;;;10.40;99.90;;;;;;5010735;28;20113;-73
2023/03/20 08:11:39;;;;;;;1999.90;999.90;;;11.20;99.90;;;;;;5004976;28;20034;-74
2023/03/20 08:14:05;;;;;;;1999.90;999.90;;;13.80;99.90;;;;;;5008505;28;20034;-74
2023/03/20 08:16:30;;;;;;;1999.90;999.90;;;15.50;99.90;;;;;;5007794;28;20053;-73
2023/03/20 08:19:00;;;;;;;1999.90;999.90;;;16.70;99.90;;;;;;5010263;28;20034;-76
2023/03/20 08:21:30;;;;;;;1999.90;999.90;;;17.80;99.90;;;;;;5016228;28;20528;-75
2023/03/20 08:23:56;;;;;;;1999.90;999.90;;;17.80;99.90;;;;;;5015364;28;20034;-74
2023/03/20 08:26:23;;;;;;;1999.90;999.90;;;17.90;99.90;;;;;;5009507;28;20025;-79
2023/03/20 08:28:48;;;;;;;1999.90;999.90;;;17.30;99.90;;;;;;5011181;28;20493;-73
2023/03/20 08:31:16;;;;;;;1999.90;999.90;;;15.10;99.90;;;;;;5014159;28;20079;-78
2023/03/20 08:33:41;;;;;;;1999.90;999.90;;;13.50;99.90;;;;;;5005737;28;20025;-73
2023/03/20 08:36:07;;;;;;;1999.90;999.90;;;13.30;99.90;;;;;;5020909;28;20459;-73
2023/03/20 08:38:33;;;;;;;1999.90;999.90;;;14.60;99.90;;;;;;5015725;28;20394;-73
2023/03/20 08:40:58;;;;;;;1999.90;999.90;;;16.30;99.90;;;;;;5012998;28;20409;-80
2023/03/20 08:43:24;;;;;;;1999.90;999.90;;;17.40;99.90;;;;;;5012644;28;20029;-74
2023/03/20 08:45:50;;;;;;;1999.90;999.90;;;19.00;99.90;;;;;;5010101;28;20555;-79
2023/03/20 08:48:16;;;;;;;1999.90;999.90;;;19.40;99.90;;;;;;5010503;28;20052;-74
2023/03/20 08:50:43;;;;;;;1999.90;999.90;;;19.30;99.90;;;;;;5017411;28;20021;-75
2023/03/20 08:53:09;;;;;;;1999.90;999.90;;;18.50;99.90;;;;;;5020763;28;20034;-75
2023/03/20 08:55:34;;;;;;;1999.90;999.90;;;18.50;99.90;;;;;;5012791;28;20580;-79
2023/03/20 08:58:00;;;;;;;1999.90;999.90;;;18.70;99.90;;;;;;5013929;28;20097;-74
2023/03/20 09:00:26;;;;;;;1999.90;999.90;;;18.60;99.90;;;;;;5021761;28;20025;-78
2023/03/20 09:02:52;;;;;;;1999.90;999.90;;;19.00;99.90;;;;;;5014014;28;20057;-75
2023/03/20 09:05:17;;;;;;;1999.90;999.90;;;20.00;99.90;;;;;;5012846;28;20061;-75
2023/03/20 09:07:43;;;;;;;1999.90;999.90;;;19.20;99.90;;;;;;5016966;28;20026;-79
2023/03/20 09:10:10;;;;;;;1999.90;999.90;;;18.90;99.90;;;;;;5018482;28;20022;-75
2023/03/20 09:12:36;;;;;;;1999.90;999.90;;;19.10;99.90;;;;;;5021309;28;20029;-80
2023/03/20 09:15:03;;;;;;;1999.90;999.90;;;18.50;99.90;;;;;;5010497;28;20065;-75
2023/03/20 09:17:30;;;;;;;1999.90;999.90;;;19.90;99.90;;;;;;5001662;28;20030;-75
2023/03/20 09:19:56;;;;;;;1999.90;999.90;;;18.70;99.90;;;;;;5008147;28;20104;-75
2023/03/20 09:22:23;;;;;;;1999.90;999.90;;;19.10;99.90;;;;;;5011220;28;20120;-79
2023/03/20 09:24:49;;;;;;;1999.90;999.90;;;19.80;99.90;;;;;;5012354;28;20030;-76
2023/03/20 09:27:15;;;;;;;1999.90;999.90;;;20.60;99.90;;;;;;5010163;28;20022;-81
2023/03/20 09:29:41;;;;;;;1999.90;999.90;;;20.40;99.90;;;;;;5010925;28;20128;-76
2023/03/20 09:32:09;;;;;;;1999.90;999.90;;;19.90;99.90;;;;;;5010781;28;20059;-82
2023/03/20 09:34:35;;;;;;;1999.90;999.90;;;19.70;99.90;;;;;;5010210;28;20050;-80
2023/03/20 09:37:02;;;;;;;1999.90;999.90;;;19.20;99.90;;;;;;5015222;28;20080;-81
2023/03/20 09:39:27;;;;;;;1999.90;999.90;;;19.10;99.90;;;;;;5010076;28;20057;-75
2023/03/20 09:41:53;;;;;;;1999.90;999.90;;;17.50;99.90;;;;;;5009915;28;20069;-75
2023/03/20 09:44:57;;;;;;;1999.90;999.90;;;17.20;99.90;;;;;;5013387;28;20406;-75
2023/03/20 09:47:39;;;;;;;1999.90;999.90;;;17.00;99.90;;;;;;5020405;28;20041;-79
2023/03/20 09:50:42;;;;;;;1999.90;999.90;;;16.60;99.90;;;;;;5007489;28;20040;-80
2023/03/20 09:53:34;;;;;;;1999.90;999.90;;;16.80;99.90;;;;;;5016834;28;20500;-78
2023/03/20 09:56:00;;;;;;;1999.90;999.90;;;17.30;99.90;;;;;;5011642;28;20042;-75
2023/03/20 09:58:36;;;;;;;1999.90;999.90;;;16.70;99.90;;;;;;5021975;28;20026;-80
2023/03/20 10:01:04;;;;;;;1999.90;999.90;;;16.50;99.90;;;;;;5010396;28;20576;-80
2023/03/20 10:03:54;;;;;;;1999.90;999.90;;;16.30;99.90;;;;;;5009112;28;20030;-80
2023/03/20 10:06:19;;;;;;;1999.90;999.90;;;16.00;99.90;;;;;;5012002;28;20041;-75
2023/03/20 10:08:45;;;;;;;1999.90;999.90;;;16.10;99.90;;;;;;5021781;28;20428;-75
2023/03/20 10:11:21;;;;;;;1999.90;999.90;;;16.00;99.90;;;;;;5020255;28;20083;-75
2023/03/20 10:14:05;;;;;;;1999.90;999.90;;;15.50;99.90;;;;;;5008023;28;20505;-79
2023/03/20 10:16:49;;;;;;;1999.90;999.90;;;15.20;99.90;;;;;;5015488;28;20519;-75
2023/03/20 10:19:26;;;;;;;1999.90;999.90;;;14.90;99.90;;;;;;5001811;28;20110;-80
2023/03/20 10:22:25;;;;;;;1999.90;999.90;;;14.30;99.90;;;;;;5017861;28;20108;-75
2023/03/20 10:25:09;;;;;;;1999.90;999.90;;;14.20;99.90;;;;;;5000920;28;20544;-74
2023/03/20 10:27:53;;;;;;;1999.90;999.90;;;14.20;99.90;;;;;;5008921;28;20033;-81
2023/03/20 10:30:32;;;;;;;1999.90;999.90;;;13.90;99.90;;;;;;5020372;28;20487;-77
2023/03/20 10:33:09;;;;;;;1999.90;999.90;;;14.10;99.90;;;;;;5010434;28;20076;-75
2023/03/20 10:35:53;;;;;;;1999.90;999.90;;;15.40;99.90;;;;;;5003013;28;20038;-74
2023/03/20 10:38:44;;;;;;;1999.90;999.90;;;15.80;99.90;;;;;;5008796;28;20040;-80
2023/03/20 10:41:16;;;;;;;1999.90;999.90;;;15.40;99.90;;;;;;5014907;28;20044;-80
2023/03/20 10:43:44;;;;;;;1999.90;999.90;;;15.20;99.90;;;;;;5013039;28;20041;-78
2023/03/20 10:46:17;;;;;;;1999.90;999.90;;;15.10;99.90;;;;;;5014004;28;20042;-74
2023/03/20 10:48:57;;;;;;;1999.90;999.90;;;14.30;99.90;;;;;;5013016;28;20129;-74
2023/03/20 10:51:49;;;;;;;1999.90;999.90;;;14.10;99.90;;;;;;5009871;28;20088;-81
2023/03/20 10:54:25;;;;;;;1999.90;999.90;;;14.50;99.90;;;;;;5011049;28;20033;-75
2023/03/20 10:56:55;;;;;;;1999.90;999.90;;;14.80;99.90;;;;;;5010038;28;20296;-81
2023/03/20 10:59:27;;;;;;;1999.90;999.90;;;14.70;99.90;;;;;;5025718;28;20045;-74
2023/03/20 11:01:52;;;;;;;1999.90;999.90;;;14.10;99.90;;;;;;5000652;28;20094;-75
2023/03/20 11:04:18;;;;;;;1999.90;999.90;;;14.20;99.90;;;;;;5000826;28;20029;-80
2023/03/20 11:06:52;;;;;;;1999.90;999.90;;;14.20;99.90;;;;;;5015260;28;20460;-74
2023/03/20 11:09:21;;;;;;;1999.90;999.90;;;14.30;99.90;;;;;;5021928;28;20083;-75
2023/03/20 11:11:48;;;;;;;1999.90;999.90;;;14.30;99.90;;;;;;5018114;28;20026;-76
2023/03/20 11:14:20;;;;;;;1999.90;999.90;;;14.40;99.90;;;;;;5010893;28;20049;-75
2023/03/20 11:16:54;;;;;;;1999.90;999.90;;;15.00;99.90;;;;;;5008817;28;20389;-80
2023/03/20 11:19:22;;;;;;;1999.90;999.90;;;15.50;99.90;;;;;;5008811;28;20292;-80
2023/03/20 11:21:51;;;;;;;1999.90;999.90;;;15.30;99.90;;;;;;5010435;28;20087;-80
2023/03/20 11:24:43;;;;;;;1999.90;999.90;;;14.90;99.90;;;;;;5009106;28;20053;-80
2023/03/20 11:27:12;;;;;;;1999.90;999.90;;;14.60;99.90;;;;;;5010594;28;20452;-76
2023/03/20 11:29:40;;;;;;;1999.90;999.90;;;15.20;99.90;;;;;;5025666;28;20029;-74
2023/03/20 11:32:30;;;;;;;1999.90;999.90;;;15.40;99.90;;;;;;5024435;28;20022;-75
2023/03/20 11:35:10;;;;;;;1999.90;999.90;;;14.90;99.90;;;;;;5021052;28;20022;-80
2023/03/20 11:37:43;;;;;;;1999.90;999.90;;;14.40;99.90;;;;;;5052742;28;20036;-74
2023/03/20 11:40:20;;;;;;;1999.90;999.90;;;14.60;99.90;;;;;;5018050;28;20038;-74
2023/03/20 11:43:02;;;;;;;1999.90;999.90;;;14.80;99.90;;;;;;5004253;28;20532;-75
2023/03/20 11:45:36;;;;;;;1999.90;999.90;;;15.50;99.90;;;;;;5013928;28;20072;-80
2023/03/20 11:48:03;;;;;;;1999.90;999.90;;;15.50;99.90;;;;;;5010493;28;20041;-75
2023/03/20 11:50:42;;;;;;;1999.90;999.90;;;15.20;99.90;;;;;;5023196;28;20080;-75
2023/03/20 11:53:38;;;;;;;1999.90;999.90;;;15.50;99.90;;;;;;5005434;28;20040;-75
2023/03/20 11:56:24;;;;;;;1999.90;999.90;;;15.60;99.90;;;;;;5007438;28;20117;-80
2023/03/20 11:58:53;;;;;;;1999.90;999.90;;;15.20;99.90;;;;;;5020853;28;20072;-81
2023/03/20 12:01:20;;;;;;;1999.90;999.90;;;15.00;99.90;;;;;;5038310;28;20026;-80
2023/03/20 12:03:54;;;;;;;1999.90;999.90;;;15.20;99.90;;;;;;5021317;28;20124;-74
2023/03/20 12:06:38;;;;;;;1999.90;999.90;;;15.10;99.90;;;;;;5008418;28;20038;-75
2023/03/20 12:09:14;;;;;;;1999.90;999.90;;;15.50;99.90;;;;;;5018158;28;20033;-81
2023/03/20 12:11:42;;;;;;;1999.90;999.90;;;15.20;99.90;;;;;;5015898;28;20030;-74
2023/03/20 12:14:33;;;;;;;1999.90;999.90;;;14.90;99.90;;;;;;5009411;28;20057;-74
2023/03/20 12:17:24;;;;;;;1999.90;999.90;;;15.00;99.90;;;;;;5011842;28;20034;-75
2023/03/20 12:19:54;;;;;;;1999.90;999.90;;;15.40;99.90;;;;;;5045365;28;20036;-75
2023/03/20 12:22:29;;;;;;;1999.90;999.90;;;14.90;99.90;;;;;;5010325;28;20393;-80
2023/03/20 12:25:03;;;;;;;1999.90;999.90;;;15.10;99.90;;;;;;5049488;28;20745;-80